Welcome to the New NWS' Forecast!
Most changes are behind the scenes, but click here for differences you might notice.

Terminal Aerodrome Forecast (TAF)

Issued by National Weather Service (NWS)

                            
000
FTUS42 KKEY 171212 AAA
TAFEYW
TAF AMD
KEYW 171212Z 1712/1812 11012G20KT P6SM VCSH SCT025
      TEMPO 1712/1713 12015G28KT 3SM SHRA BKN030
     FM171500 09013G20KT P6SM SCT025
     FM180000 09010KT P6SM FEW025=